createdAt,value
2023-03-26T00:00:35.013Z,24.3
2023-03-26T00:05:53.877Z,24.3
2023-03-26T00:11:12.689Z,24.3
2023-03-26T00:16:31.306Z,24.3
2023-03-26T00:21:50.058Z,24.3
2023-03-26T00:27:08.556Z,24.3
2023-03-26T00:32:26.669Z,24.2
2023-03-26T00:37:45.007Z,24.2
2023-03-26T00:43:03.121Z,24.2
2023-03-26T00:48:31.465Z,24.3
2023-03-26T00:54:02.645Z,24.3
2023-03-26T00:59:21.189Z,24.2
2023-03-26T01:04:39.742Z,24.3
2023-03-26T01:09:58.218Z,24.3
2023-03-26T01:15:16.903Z,24.3
2023-03-26T01:20:34.974Z,24.3
2023-03-26T01:25:53.539Z,24.3
2023-03-26T01:31:12.068Z,24.3
2023-03-26T01:36:30.337Z,24.3
2023-03-26T01:41:48.521Z,24.3
2023-03-26T01:47:06.671Z,24.3
2023-03-26T01:52:24.724Z,24.3
2023-03-26T01:57:43.226Z,24.3
2023-03-26T02:03:01.334Z,24.3
2023-03-26T02:08:19.752Z,24.3
2023-03-26T02:13:37.835Z,24.4
2023-03-26T02:18:56.154Z,24.3
2023-03-26T02:24:14.599Z,24.4
2023-03-26T02:29:33.085Z,24.4
2023-03-26T02:34:51.549Z,24.4
2023-03-26T02:40:09.999Z,24.4
2023-03-26T02:45:28.356Z,24.4
2023-03-26T02:50:46.558Z,24.4
2023-03-26T02:56:05.036Z,24.4
2023-03-26T03:01:23.289Z,24.4
2023-03-26T03:06:41.558Z,24.4
2023-03-26T03:11:59.664Z,24.4
2023-03-26T03:17:17.980Z,24.4
2023-03-26T03:22:36.637Z,24.4
2023-03-26T03:27:54.745Z,24.4
2023-03-26T03:33:13.442Z,24.4
2023-03-26T03:38:31.779Z,24.4
2023-03-26T03:43:50.248Z,24.4
2023-03-26T03:49:08.339Z,24.4
2023-03-26T03:54:26.638Z,24.4
2023-03-26T03:59:48.444Z,24.4
2023-03-26T04:05:06.970Z,24.4
2023-03-26T04:10:25.114Z,24.4
2023-03-26T04:15:43.256Z,24.4
2023-03-26T04:21:01.553Z,24.4
2023-03-26T04:26:20.006Z,24.4
2023-03-26T04:31:38.195Z,24.4
2023-03-26T04:36:56.548Z,24.4
2023-03-26T04:42:14.882Z,24.4
2023-03-26T04:47:32.984Z,24.5
2023-03-26T04:52:51.065Z,24.5
2023-03-26T04:58:09.547Z,24.5
2023-03-26T05:03:28.227Z,24.5
2023-03-26T05:08:46.348Z,24.5
2023-03-26T05:14:04.857Z,24.5
2023-03-26T05:19:23.326Z,24.5
2023-03-26T05:24:41.437Z,24.5
2023-03-26T05:29:59.964Z,24.5
2023-03-26T05:35:18.184Z,24.5
2023-03-26T05:40:36.708Z,24.4
2023-03-26T05:45:55.385Z,24.5
2023-03-26T05:51:13.699Z,24.5
2023-03-26T05:56:32.054Z,24.5
2023-03-26T06:01:50.184Z,24.5
2023-03-26T06:07:08.726Z,24.5
2023-03-26T06:12:27.023Z,24.5
2023-03-26T06:17:45.645Z,24.5
2023-03-26T06:23:04.133Z,24.5
2023-03-26T06:28:22.263Z,24.6
2023-03-26T06:33:40.631Z,24.6
2023-03-26T06:38:59.159Z,24.6
2023-03-26T06:44:17.804Z,24.7
2023-03-26T06:49:36.132Z,24.7
2023-03-26T06:54:54.277Z,24.7
2023-03-26T07:00:12.618Z,24.7
2023-03-26T07:05:30.928Z,24.7
2023-03-26T07:10:49.423Z,24.7
2023-03-26T07:16:07.664Z,24.7
2023-03-26T07:21:25.684Z,24.7
2023-03-26T07:26:44.200Z,24.7
2023-03-26T07:32:02.493Z,24.6
2023-03-26T07:37:21.813Z,24.6
2023-03-26T07:42:39.886Z,24.4
2023-03-26T07:47:58.192Z,24.4
2023-03-26T07:53:16.151Z,24.5
2023-03-26T07:58:34.424Z,24.5
2023-03-26T08:03:52.716Z,24.5
2023-03-26T08:09:10.796Z,24.5
2023-03-26T08:14:29.043Z,24.5
2023-03-26T08:19:46.946Z,24.6
2023-03-26T08:25:05.249Z,24.6
2023-03-26T08:30:23.578Z,24.6
2023-03-26T08:35:42.138Z,24.6
2023-03-26T08:41:01.024Z,24.6
2023-03-26T08:46:19.190Z,24.7
2023-03-26T08:51:37.768Z,24.7
2023-03-26T08:56:55.910Z,24.7
2023-03-26T09:02:14.187Z,24.7
2023-03-26T09:07:32.287Z,24.8
2023-03-26T09:12:51.036Z,24.8
2023-03-26T09:18:10.954Z,24.8
2023-03-26T09:23:30.295Z,24.9
2023-03-26T09:28:48.385Z,24.9
2023-03-26T09:34:06.857Z,24.9
2023-03-26T09:39:24.932Z,24.9
2023-03-26T09:44:43.048Z,25
2023-03-26T09:50:00.938Z,25
2023-03-26T09:55:19.424Z,25
2023-03-26T10:00:37.993Z,25
2023-03-26T10:05:57.259Z,25.1
2023-03-26T10:11:15.565Z,25.1
2023-03-26T10:16:33.988Z,25.1
2023-03-26T10:21:52.674Z,25.1
2023-03-26T10:27:11.256Z,25.1
2023-03-26T10:32:30.045Z,25.2
2023-03-26T10:37:48.428Z,25.2
2023-03-26T10:43:06.904Z,25.2
2023-03-26T10:48:30.874Z,25.2
2023-03-26T10:53:49.142Z,25.2
2023-03-26T10:59:08.628Z,25.2
2023-03-26T11:04:27.010Z,25.2
2023-03-26T11:09:45.102Z,25.2
2023-03-26T11:15:03.191Z,25.2
2023-03-26T11:20:21.870Z,25.2
2023-03-26T11:25:42.760Z,25.2
2023-03-26T11:31:01.069Z,25.2
2023-03-26T11:36:19.299Z,25.2
2023-03-26T11:41:37.767Z,25.2
2023-03-26T11:46:56.396Z,25.2
2023-03-26T11:52:15.927Z,25.2
2023-03-26T11:57:34.248Z,25.3
2023-03-26T12:02:57.038Z,25.3
2023-03-26T12:08:15.608Z,25.3
2023-03-26T12:13:39.418Z,25.3
2023-03-26T12:18:57.777Z,25.3
2023-03-26T12:24:16.282Z,25.2
2023-03-26T12:29:34.893Z,25.2
2023-03-26T12:34:54.359Z,25.2
2023-03-26T12:40:21.739Z,25.2
2023-03-26T12:45:40.872Z,25.2
2023-03-26T12:51:02.208Z,25.2
2023-03-26T12:56:21.744Z,25.2
2023-03-26T13:01:41.105Z,25.2
2023-03-26T13:07:02.702Z,25.2
2023-03-26T13:12:21.395Z,25.2
2023-03-26T13:17:39.803Z,25.1
2023-03-26T13:22:58.201Z,25.1
2023-03-26T13:28:16.972Z,25.1
2023-03-26T13:33:35.495Z,25.1
2023-03-26T13:39:00.962Z,25
2023-03-26T13:44:19.587Z,25
2023-03-26T13:49:38.073Z,25.1
2023-03-26T13:54:56.371Z,25.1
2023-03-26T14:00:14.497Z,25
2023-03-26T14:05:32.799Z,25
2023-03-26T14:10:51.256Z,25
2023-03-26T14:16:09.518Z,25
2023-03-26T14:21:28.295Z,25
2023-03-26T14:26:46.360Z,25
2023-03-26T14:32:04.909Z,25.1
2023-03-26T14:37:28.506Z,25
2023-03-26T14:42:46.760Z,25
2023-03-26T14:48:09.871Z,25
2023-03-26T14:53:28.297Z,25
2023-03-26T14:58:46.574Z,25
2023-03-26T15:11:08.212Z,24.8
2023-03-26T15:16:11.139Z,24.8
2023-03-26T15:21:29.379Z,24.8
2023-03-26T15:26:47.800Z,24.9
2023-03-26T15:32:05.947Z,24.9
2023-03-26T15:37:24.491Z,24.9
2023-03-26T15:42:42.440Z,24.9
2023-03-26T15:48:00.838Z,24.9
2023-03-26T15:53:19.250Z,25
2023-03-26T15:58:37.662Z,25
2023-03-26T16:03:56.209Z,25
2023-03-26T16:09:14.672Z,25
2023-03-26T16:14:35.899Z,25
2023-03-26T16:19:54.212Z,25
2023-03-26T16:25:29.465Z,24.9
2023-03-26T16:30:47.982Z,24.9
2023-03-26T16:36:06.116Z,24.9
2023-03-26T16:41:09.790Z,24.9
2023-03-26T16:46:27.972Z,24.9
2023-03-26T16:51:46.434Z,24.8
2023-03-26T16:57:05.007Z,24.8
2023-03-26T17:02:23.491Z,24.7
2023-03-26T17:07:41.647Z,24.7
2023-03-26T17:13:00.098Z,24.7
2023-03-26T17:18:18.618Z,24.7
2023-03-26T17:23:39.999Z,24.7
2023-03-26T17:28:58.469Z,24.7
2023-03-26T17:34:16.628Z,24.6
2023-03-26T17:39:35.000Z,24.5
2023-03-26T17:44:53.287Z,24.5
2023-03-26T17:50:11.810Z,24.5
2023-03-26T17:55:30.332Z,24.5
2023-03-26T18:00:48.650Z,24.5
2023-03-26T18:06:07.267Z,24.5
2023-03-26T18:11:25.127Z,24.5
2023-03-26T18:16:43.445Z,24.5
2023-03-26T18:22:01.485Z,24.5
2023-03-26T18:27:19.356Z,24.5
2023-03-26T18:32:37.710Z,24.5
2023-03-26T18:37:55.918Z,24.5
2023-03-26T18:43:34.312Z,24.5
2023-03-26T18:49:01.791Z,24.5
2023-03-26T18:54:20.072Z,24.5
2023-03-26T18:59:41.446Z,24.5
2023-03-26T19:04:59.907Z,24.5
2023-03-26T19:10:19.105Z,24.5
2023-03-26T19:15:37.568Z,24.5
2023-03-26T19:20:56.072Z,24.5
2023-03-26T19:26:14.927Z,24.5
2023-03-26T19:31:33.367Z,24.5
2023-03-26T19:36:52.983Z,24.5
2023-03-26T19:42:11.400Z,24.5
2023-03-26T19:47:50.307Z,24.5
2023-03-26T19:56:36.838Z,24.5
2023-03-26T20:01:55.437Z,24.5
2023-03-26T20:07:13.698Z,24.5
2023-03-26T20:12:31.789Z,24.6
2023-03-26T20:17:50.462Z,24.6
2023-03-26T20:23:08.613Z,24.6
2023-03-26T20:28:26.883Z,24.6
2023-03-26T20:33:44.992Z,24.6
2023-03-26T20:39:03.537Z,24.6
2023-03-26T20:44:21.756Z,24.6
2023-03-26T20:49:40.362Z,24.6
2023-03-26T20:54:58.510Z,24.6
2023-03-26T21:00:16.779Z,24.6
2023-03-26T21:05:34.972Z,24.6
2023-03-26T21:10:53.347Z,24.6
2023-03-26T21:16:11.474Z,24.6
2023-03-26T21:21:29.948Z,24.6
2023-03-26T21:26:48.227Z,24.6
2023-03-26T21:32:06.346Z,24.6
2023-03-26T21:37:24.331Z,24.6
2023-03-26T21:42:42.434Z,24.6
2023-03-26T21:48:01.041Z,24.6
2023-03-26T21:53:19.441Z,24.6
2023-03-26T21:58:37.311Z,24.5
2023-03-26T22:03:55.542Z,24.5
2023-03-26T22:09:20.653Z,24.5
2023-03-26T22:14:53.595Z,24.5
2023-03-26T22:20:12.123Z,24.5
2023-03-26T22:25:30.261Z,24.5
2023-03-26T22:30:48.761Z,24.5
2023-03-26T22:36:23.713Z,24.5
2023-03-26T22:41:41.751Z,24.5
2023-03-26T22:47:00.053Z,24.5
2023-03-26T22:52:18.419Z,24.5
2023-03-26T22:57:36.857Z,24.5
2023-03-26T23:02:55.198Z,24.5
2023-03-26T23:08:13.551Z,24.5
2023-03-26T23:13:32.102Z,24.5
2023-03-26T23:18:50.395Z,24.5
2023-03-26T23:24:08.775Z,24.5
2023-03-26T23:29:27.325Z,24.5
2023-03-26T23:34:52.620Z,24.5
2023-03-26T23:40:11.296Z,24.5
2023-03-26T23:45:29.704Z,24.5
2023-03-26T23:50:47.649Z,24.5
2023-03-26T23:56:05.929Z,24.5
